sensor_id;sensor_type;location;lat;lon;timestamp;P1;durP1;ratioP1;P2;durP2;ratioP2
41343;SDS011;27089;50.022;7.604;2022-07-15T00:01:38;3.53;;;2.40;;
41343;SDS011;27089;50.022;7.604;2022-07-15T00:04:06;4.00;;;2.30;;
41343;SDS011;27089;50.022;7.604;2022-07-15T00:06:35;4.10;;;2.23;;
41343;SDS011;27089;50.022;7.604;2022-07-15T00:09:02;6.00;;;3.03;;
41343;SDS011;27089;50.022;7.604;2022-07-15T00:11:29;3.80;;;2.30;;
41343;SDS011;27089;50.022;7.604;2022-07-15T00:13:56;3.70;;;2.20;;
41343;SDS011;27089;50.022;7.604;2022-07-15T00:16:23;3.87;;;2.63;;
41343;SDS011;27089;50.022;7.604;2022-07-15T00:18:50;3.67;;;2.40;;
41343;SDS011;27089;50.022;7.604;2022-07-15T00:21:20;2.83;;;2.30;;
41343;SDS011;27089;50.022;7.604;2022-07-15T00:23:47;7.23;;;2.53;;
41343;SDS011;27089;50.022;7.604;2022-07-15T00:26:13;2.87;;;2.30;;
41343;SDS011;27089;50.022;7.604;2022-07-15T00:28:40;3.60;;;2.40;;
41343;SDS011;27089;50.022;7.604;2022-07-15T00:31:07;3.73;;;2.30;;
41343;SDS011;27089;50.022;7.604;2022-07-15T00:33:34;2.97;;;2.10;;
41343;SDS011;27089;50.022;7.604;2022-07-15T00:36:02;3.47;;;2.40;;
41343;SDS011;27089;50.022;7.604;2022-07-15T00:38:31;2.50;;;2.30;;
41343;SDS011;27089;50.022;7.604;2022-07-15T00:40:58;3.10;;;2.20;;
41343;SDS011;27089;50.022;7.604;2022-07-15T00:43:25;4.00;;;2.30;;
41343;SDS011;27089;50.022;7.604;2022-07-15T00:45:51;4.93;;;2.20;;
41343;SDS011;27089;50.022;7.604;2022-07-15T00:48:19;4.37;;;2.57;;
41343;SDS011;27089;50.022;7.604;2022-07-15T00:50:46;3.50;;;2.60;;
41343;SDS011;27089;50.022;7.604;2022-07-15T00:53:15;4.27;;;2.13;;
41343;SDS011;27089;50.022;7.604;2022-07-15T00:55:45;2.30;;;2.10;;
41343;SDS011;27089;50.022;7.604;2022-07-15T00:58:15;2.10;;;1.90;;
41343;SDS011;27089;50.022;7.604;2022-07-15T01:00:44;4.67;;;2.30;;
41343;SDS011;27089;50.022;7.604;2022-07-15T01:03:13;3.47;;;2.00;;
41343;SDS011;27089;50.022;7.604;2022-07-15T01:05:42;5.07;;;2.40;;
41343;SDS011;27089;50.022;7.604;2022-07-15T01:08:11;3.10;;;2.47;;
41343;SDS011;27089;50.022;7.604;2022-07-15T01:10:38;4.90;;;2.30;;
41343;SDS011;27089;50.022;7.604;2022-07-15T01:13:08;5.33;;;2.57;;
41343;SDS011;27089;50.022;7.604;2022-07-15T01:15:35;3.90;;;2.03;;
41343;SDS011;27089;50.022;7.604;2022-07-15T01:18:02;3.20;;;2.03;;
41343;SDS011;27089;50.022;7.604;2022-07-15T01:20:30;2.97;;;2.30;;
41343;SDS011;27089;50.022;7.604;2022-07-15T01:22:59;3.30;;;2.00;;
41343;SDS011;27089;50.022;7.604;2022-07-15T01:25:27;5.20;;;2.37;;
41343;SDS011;27089;50.022;7.604;2022-07-15T01:27:54;4.83;;;1.83;;
41343;SDS011;27089;50.022;7.604;2022-07-15T01:30:22;6.23;;;2.23;;
41343;SDS011;27089;50.022;7.604;2022-07-15T01:32:50;2.80;;;2.10;;
41343;SDS011;27089;50.022;7.604;2022-07-15T01:35:19;2.83;;;1.93;;
41343;SDS011;27089;50.022;7.604;2022-07-15T01:37:46;3.00;;;2.10;;
41343;SDS011;27089;50.022;7.604;2022-07-15T01:40:14;3.23;;;2.13;;
41343;SDS011;27089;50.022;7.604;2022-07-15T01:42:41;4.37;;;2.40;;
41343;SDS011;27089;50.022;7.604;2022-07-15T01:45:10;7.57;;;2.60;;
41343;SDS011;27089;50.022;7.604;2022-07-15T01:47:47;3.30;;;2.23;;
41343;SDS011;27089;50.022;7.604;2022-07-15T01:50:18;3.40;;;2.00;;
41343;SDS011;27089;50.022;7.604;2022-07-15T01:52:45;6.27;;;2.40;;
41343;SDS011;27089;50.022;7.604;2022-07-15T01:55:11;2.27;;;2.00;;
41343;SDS011;27089;50.022;7.604;2022-07-15T01:57:40;4.37;;;2.30;;
41343;SDS011;27089;50.022;7.604;2022-07-15T02:00:08;4.53;;;2.67;;
41343;SDS011;27089;50.022;7.604;2022-07-15T02:02:37;3.47;;;2.53;;
41343;SDS011;27089;50.022;7.604;2022-07-15T02:05:04;4.47;;;2.30;;
41343;SDS011;27089;50.022;7.604;2022-07-15T02:07:32;4.83;;;2.40;;
41343;SDS011;27089;50.022;7.604;2022-07-15T02:09:59;3.70;;;2.23;;
41343;SDS011;27089;50.022;7.604;2022-07-15T02:12:26;4.63;;;2.33;;
41343;SDS011;27089;50.022;7.604;2022-07-15T02:14:54;5.37;;;2.20;;
41343;SDS011;27089;50.022;7.604;2022-07-15T02:17:21;2.67;;;2.30;;
41343;SDS011;27089;50.022;7.604;2022-07-15T02:19:49;4.07;;;2.23;;
41343;SDS011;27089;50.022;7.604;2022-07-15T02:22:16;2.60;;;2.37;;
41343;SDS011;27089;50.022;7.604;2022-07-15T02:24:43;4.40;;;2.70;;
41343;SDS011;27089;50.022;7.604;2022-07-15T02:27:10;3.63;;;2.40;;
41343;SDS011;27089;50.022;7.604;2022-07-15T02:29:37;4.13;;;2.20;;
41343;SDS011;27089;50.022;7.604;2022-07-15T02:32:06;4.23;;;2.37;;
41343;SDS011;27089;50.022;7.604;2022-07-15T02:34:33;4.23;;;2.40;;
41343;SDS011;27089;50.022;7.604;2022-07-15T02:37:01;2.57;;;2.10;;
41343;SDS011;27089;50.022;7.604;2022-07-15T02:39:28;3.70;;;2.23;;
41343;SDS011;27089;50.022;7.604;2022-07-15T02:41:56;5.63;;;2.43;;
41343;SDS011;27089;50.022;7.604;2022-07-15T02:44:23;4.23;;;2.23;;
41343;SDS011;27089;50.022;7.604;2022-07-15T02:46:50;2.70;;;2.03;;
41343;SDS011;27089;50.022;7.604;2022-07-15T02:49:18;4.83;;;2.27;;
41343;SDS011;27089;50.022;7.604;2022-07-15T02:51:46;4.63;;;2.30;;
41343;SDS011;27089;50.022;7.604;2022-07-15T02:54:13;3.93;;;2.10;;
41343;SDS011;27089;50.022;7.604;2022-07-15T02:56:40;4.20;;;2.37;;
41343;SDS011;27089;50.022;7.604;2022-07-15T02:59:07;4.60;;;2.10;;
41343;SDS011;27089;50.022;7.604;2022-07-15T03:01:34;3.17;;;2.30;;
41343;SDS011;27089;50.022;7.604;2022-07-15T03:04:01;2.77;;;2.30;;
41343;SDS011;27089;50.022;7.604;2022-07-15T03:06:30;5.83;;;2.30;;
41343;SDS011;27089;50.022;7.604;2022-07-15T03:08:58;5.40;;;2.27;;
41343;SDS011;27089;50.022;7.604;2022-07-15T03:11:26;4.50;;;2.60;;
41343;SDS011;27089;50.022;7.604;2022-07-15T03:13:54;4.23;;;2.07;;
41343;SDS011;27089;50.022;7.604;2022-07-15T03:16:21;4.47;;;2.13;;
41343;SDS011;27089;50.022;7.604;2022-07-15T03:18:48;3.30;;;2.30;;
41343;SDS011;27089;50.022;7.604;2022-07-15T03:21:15;7.43;;;2.33;;
41343;SDS011;27089;50.022;7.604;2022-07-15T03:23:43;4.37;;;3.53;;
41343;SDS011;27089;50.022;7.604;2022-07-15T03:26:10;5.90;;;2.50;;
41343;SDS011;27089;50.022;7.604;2022-07-15T03:28:37;5.53;;;2.87;;
41343;SDS011;27089;50.022;7.604;2022-07-15T03:31:04;4.50;;;2.70;;
41343;SDS011;27089;50.022;7.604;2022-07-15T03:33:32;2.93;;;2.30;;
41343;SDS011;27089;50.022;7.604;2022-07-15T03:35:59;4.00;;;2.33;;
41343;SDS011;27089;50.022;7.604;2022-07-15T03:38:26;3.43;;;2.67;;
41343;SDS011;27089;50.022;7.604;2022-07-15T03:40:54;4.07;;;2.63;;
41343;SDS011;27089;50.022;7.604;2022-07-15T03:43:21;5.33;;;2.83;;
41343;SDS011;27089;50.022;7.604;2022-07-15T03:45:52;5.20;;;3.07;;
41343;SDS011;27089;50.022;7.604;2022-07-15T03:48:19;6.33;;;3.13;;
41343;SDS011;27089;50.022;7.604;2022-07-15T03:50:46;5.60;;;2.70;;
41343;SDS011;27089;50.022;7.604;2022-07-15T03:53:13;5.03;;;2.53;;
41343;SDS011;27089;50.022;7.604;2022-07-15T03:55:40;4.43;;;2.60;;
41343;SDS011;27089;50.022;7.604;2022-07-15T03:58:08;4.10;;;2.50;;
41343;SDS011;27089;50.022;7.604;2022-07-15T04:00:35;4.83;;;2.73;;
41343;SDS011;27089;50.022;7.604;2022-07-15T04:03:02;6.77;;;2.33;;
41343;SDS011;27089;50.022;7.604;2022-07-15T04:05:29;4.37;;;2.80;;
41343;SDS011;27089;50.022;7.604;2022-07-15T04:07:56;3.53;;;2.33;;
41343;SDS011;27089;50.022;7.604;2022-07-15T04:10:23;3.63;;;2.50;;
41343;SDS011;27089;50.022;7.604;2022-07-15T04:12:50;3.90;;;2.53;;
41343;SDS011;27089;50.022;7.604;2022-07-15T04:15:19;3.23;;;2.63;;
41343;SDS011;27089;50.022;7.604;2022-07-15T04:17:46;3.33;;;2.43;;
41343;SDS011;27089;50.022;7.604;2022-07-15T04:20:13;2.80;;;2.33;;
41343;SDS011;27089;50.022;7.604;2022-07-15T04:22:40;4.60;;;2.57;;
41343;SDS011;27089;50.022;7.604;2022-07-15T04:25:07;2.90;;;2.60;;
41343;SDS011;27089;50.022;7.604;2022-07-15T04:27:36;3.97;;;2.60;;
41343;SDS011;27089;50.022;7.604;2022-07-15T04:30:03;5.23;;;3.00;;
41343;SDS011;27089;50.022;7.604;2022-07-15T04:32:33;6.67;;;2.83;;
41343;SDS011;27089;50.022;7.604;2022-07-15T04:35:00;5.20;;;2.53;;
41343;SDS011;27089;50.022;7.604;2022-07-15T04:37:27;4.37;;;2.77;;
41343;SDS011;27089;50.022;7.604;2022-07-15T04:39:54;4.27;;;2.53;;
41343;SDS011;27089;50.022;7.604;2022-07-15T04:42:22;5.17;;;2.70;;
41343;SDS011;27089;50.022;7.604;2022-07-15T04:44:49;3.73;;;3.00;;
41343;SDS011;27089;50.022;7.604;2022-07-15T04:47:16;4.43;;;2.83;;
41343;SDS011;27089;50.022;7.604;2022-07-15T04:49:44;6.10;;;2.90;;
41343;SDS011;27089;50.022;7.604;2022-07-15T04:52:43;5.23;;;3.00;;
41343;SDS011;27089;50.022;7.604;2022-07-15T04:55:11;5.83;;;3.10;;
41343;SDS011;27089;50.022;7.604;2022-07-15T04:57:38;3.97;;;2.87;;
41343;SDS011;27089;50.022;7.604;2022-07-15T05:00:07;5.30;;;2.90;;
41343;SDS011;27089;50.022;7.604;2022-07-15T05:02:35;3.90;;;2.80;;
41343;SDS011;27089;50.022;7.604;2022-07-15T05:05:04;6.67;;;3.10;;
41343;SDS011;27089;50.022;7.604;2022-07-15T05:07:32;3.67;;;2.57;;
41343;SDS011;27089;50.022;7.604;2022-07-15T05:09:59;7.30;;;3.00;;
41343;SDS011;27089;50.022;7.604;2022-07-15T05:12:26;8.20;;;3.00;;
41343;SDS011;27089;50.022;7.604;2022-07-15T05:14:54;6.23;;;3.13;;
41343;SDS011;27089;50.022;7.604;2022-07-15T05:17:21;6.13;;;3.10;;
41343;SDS011;27089;50.022;7.604;2022-07-15T05:19:48;5.30;;;2.80;;
41343;SDS011;27089;50.022;7.604;2022-07-15T05:22:16;6.27;;;2.73;;
41343;SDS011;27089;50.022;7.604;2022-07-15T05:24:43;4.97;;;2.80;;
41343;SDS011;27089;50.022;7.604;2022-07-15T05:27:10;4.53;;;3.00;;
41343;SDS011;27089;50.022;7.604;2022-07-15T05:29:38;6.50;;;2.37;;
41343;SDS011;27089;50.022;7.604;2022-07-15T05:32:05;4.43;;;2.70;;
41343;SDS011;27089;50.022;7.604;2022-07-15T05:34:32;4.37;;;2.70;;
41343;SDS011;27089;50.022;7.604;2022-07-15T05:36:59;5.77;;;3.20;;
41343;SDS011;27089;50.022;7.604;2022-07-15T05:39:28;3.97;;;2.60;;
41343;SDS011;27089;50.022;7.604;2022-07-15T05:41:55;8.60;;;3.20;;
41343;SDS011;27089;50.022;7.604;2022-07-15T05:44:23;4.53;;;2.97;;
41343;SDS011;27089;50.022;7.604;2022-07-15T05:46:50;3.57;;;2.50;;
41343;SDS011;27089;50.022;7.604;2022-07-15T05:49:18;6.87;;;2.83;;
41343;SDS011;27089;50.022;7.604;2022-07-15T05:51:45;6.47;;;2.90;;
41343;SDS011;27089;50.022;7.604;2022-07-15T05:54:12;7.53;;;2.90;;
41343;SDS011;27089;50.022;7.604;2022-07-15T05:56:41;5.80;;;2.70;;
41343;SDS011;27089;50.022;7.604;2022-07-15T05:59:08;4.63;;;2.77;;
41343;SDS011;27089;50.022;7.604;2022-07-15T06:01:35;5.63;;;3.10;;
41343;SDS011;27089;50.022;7.604;2022-07-15T06:04:02;6.23;;;2.60;;
41343;SDS011;27089;50.022;7.604;2022-07-15T06:06:29;7.93;;;2.43;;
41343;SDS011;27089;50.022;7.604;2022-07-15T06:08:56;4.37;;;2.40;;
41343;SDS011;27089;50.022;7.604;2022-07-15T06:11:23;7.00;;;2.90;;
41343;SDS011;27089;50.022;7.604;2022-07-15T06:13:51;5.20;;;2.83;;
41343;SDS011;27089;50.022;7.604;2022-07-15T06:16:18;6.93;;;2.70;;
41343;SDS011;27089;50.022;7.604;2022-07-15T06:18:45;4.27;;;2.50;;
41343;SDS011;27089;50.022;7.604;2022-07-15T06:21:13;6.00;;;2.70;;
41343;SDS011;27089;50.022;7.604;2022-07-15T06:23:40;5.37;;;2.70;;
41343;SDS011;27089;50.022;7.604;2022-07-15T06:26:07;6.10;;;2.37;;
41343;SDS011;27089;50.022;7.604;2022-07-15T06:28:34;7.90;;;2.50;;
41343;SDS011;27089;50.022;7.604;2022-07-15T06:31:03;6.10;;;2.70;;
41343;SDS011;27089;50.022;7.604;2022-07-15T06:33:30;6.57;;;2.50;;
41343;SDS011;27089;50.022;7.604;2022-07-15T06:35:57;7.50;;;2.80;;
41343;SDS011;27089;50.022;7.604;2022-07-15T06:38:24;6.23;;;2.50;;
41343;SDS011;27089;50.022;7.604;2022-07-15T06:40:52;6.30;;;2.60;;
41343;SDS011;27089;50.022;7.604;2022-07-15T06:43:19;6.97;;;2.80;;
41343;SDS011;27089;50.022;7.604;2022-07-15T06:45:46;6.90;;;2.43;;
41343;SDS011;27089;50.022;7.604;2022-07-15T06:48:15;5.83;;;2.10;;
41343;SDS011;27089;50.022;7.604;2022-07-15T06:50:42;5.73;;;2.90;;
41343;SDS011;27089;50.022;7.604;2022-07-15T06:53:09;6.40;;;3.20;;
41343;SDS011;27089;50.022;7.604;2022-07-15T06:55:37;6.57;;;3.10;;
41343;SDS011;27089;50.022;7.604;2022-07-15T06:58:04;5.30;;;3.20;;
41343;SDS011;27089;50.022;7.604;2022-07-15T07:00:31;5.77;;;3.47;;
41343;SDS011;27089;50.022;7.604;2022-07-15T07:02:58;5.87;;;3.43;;
41343;SDS011;27089;50.022;7.604;2022-07-15T07:05:26;6.37;;;3.40;;
41343;SDS011;27089;50.022;7.604;2022-07-15T07:07:54;8.20;;;3.60;;
41343;SDS011;27089;50.022;7.604;2022-07-15T07:10:21;5.87;;;3.27;;
41343;SDS011;27089;50.022;7.604;2022-07-15T07:12:49;5.30;;;3.43;;
41343;SDS011;27089;50.022;7.604;2022-07-15T07:15:16;5.70;;;3.53;;
41343;SDS011;27089;50.022;7.604;2022-07-15T07:17:44;6.37;;;3.27;;
41343;SDS011;27089;50.022;7.604;2022-07-15T07:20:11;4.70;;;3.20;;
41343;SDS011;27089;50.022;7.604;2022-07-15T07:22:39;7.50;;;3.40;;
41343;SDS011;27089;50.022;7.604;2022-07-15T07:25:07;7.03;;;2.97;;
41343;SDS011;27089;50.022;7.604;2022-07-15T07:27:34;7.00;;;3.27;;
41343;SDS011;27089;50.022;7.604;2022-07-15T07:30:01;4.60;;;3.07;;
41343;SDS011;27089;50.022;7.604;2022-07-15T07:32:29;5.57;;;3.43;;
41343;SDS011;27089;50.022;7.604;2022-07-15T07:34:56;7.73;;;3.40;;
41343;SDS011;27089;50.022;7.604;2022-07-15T07:37:24;7.33;;;3.53;;
41343;SDS011;27089;50.022;7.604;2022-07-15T07:39:53;6.13;;;3.87;;
41343;SDS011;27089;50.022;7.604;2022-07-15T07:42:20;8.37;;;3.50;;
41343;SDS011;27089;50.022;7.604;2022-07-15T07:44:47;5.97;;;3.63;;
41343;SDS011;27089;50.022;7.604;2022-07-15T07:47:14;8.73;;;3.77;;
41343;SDS011;27089;50.022;7.604;2022-07-15T07:49:41;3.90;;;3.00;;
41343;SDS011;27089;50.022;7.604;2022-07-15T07:52:09;9.47;;;3.60;;
41343;SDS011;27089;50.022;7.604;2022-07-15T07:54:36;5.03;;;3.20;;
41343;SDS011;27089;50.022;7.604;2022-07-15T07:57:04;6.47;;;3.63;;
41343;SDS011;27089;50.022;7.604;2022-07-15T07:59:31;7.93;;;3.63;;
41343;SDS011;27089;50.022;7.604;2022-07-15T08:01:58;4.53;;;3.50;;
41343;SDS011;27089;50.022;7.604;2022-07-15T08:04:25;6.63;;;3.50;;
41343;SDS011;27089;50.022;7.604;2022-07-15T08:06:52;8.10;;;3.90;;
41343;SDS011;27089;50.022;7.604;2022-07-15T08:09:19;4.70;;;3.43;;
41343;SDS011;27089;50.022;7.604;2022-07-15T08:11:46;7.20;;;4.10;;
41343;SDS011;27089;50.022;7.604;2022-07-15T08:14:15;8.03;;;4.37;;
41343;SDS011;27089;50.022;7.604;2022-07-15T08:16:43;7.33;;;4.43;;
41343;SDS011;27089;50.022;7.604;2022-07-15T08:19:11;4.67;;;4.07;;
41343;SDS011;27089;50.022;7.604;2022-07-15T08:21:41;6.63;;;3.93;;
41343;SDS011;27089;50.022;7.604;2022-07-15T08:24:09;6.50;;;4.00;;
41343;SDS011;27089;50.022;7.604;2022-07-15T08:26:37;9.00;;;4.33;;
41343;SDS011;27089;50.022;7.604;2022-07-15T08:29:04;8.33;;;4.33;;
41343;SDS011;27089;50.022;7.604;2022-07-15T08:31:33;6.77;;;3.80;;
41343;SDS011;27089;50.022;7.604;2022-07-15T08:34:01;7.10;;;3.50;;
41343;SDS011;27089;50.022;7.604;2022-07-15T08:36:28;6.07;;;3.30;;
41343;SDS011;27089;50.022;7.604;2022-07-15T08:38:55;6.43;;;3.60;;
41343;SDS011;27089;50.022;7.604;2022-07-15T08:41:22;7.57;;;3.30;;
41343;SDS011;27089;50.022;7.604;2022-07-15T08:43:49;6.00;;;3.17;;
41343;SDS011;27089;50.022;7.604;2022-07-15T08:46:16;5.40;;;3.20;;
41343;SDS011;27089;50.022;7.604;2022-07-15T08:48:48;4.43;;;3.27;;
41343;SDS011;27089;50.022;7.604;2022-07-15T08:51:17;5.97;;;3.60;;
41343;SDS011;27089;50.022;7.604;2022-07-15T08:53:48;6.93;;;3.33;;
41343;SDS011;27089;50.022;7.604;2022-07-15T08:56:16;4.77;;;3.27;;
41343;SDS011;27089;50.022;7.604;2022-07-15T08:58:44;10.15;;;4.32;;
41343;SDS011;27089;50.022;7.604;2022-07-15T09:01:11;7.88;;;3.50;;
41343;SDS011;27089;50.022;7.604;2022-07-15T09:03:39;5.18;;;3.45;;
41343;SDS011;27089;50.022;7.604;2022-07-15T09:06:07;4.57;;;2.70;;
41343;SDS011;27089;50.022;7.604;2022-07-15T09:08:34;5.63;;;3.00;;
41343;SDS011;27089;50.022;7.604;2022-07-15T09:11:02;6.40;;;3.40;;
41343;SDS011;27089;50.022;7.604;2022-07-15T09:13:31;5.73;;;3.10;;
41343;SDS011;27089;50.022;7.604;2022-07-15T09:16:00;5.73;;;3.17;;
41343;SDS011;27089;50.022;7.604;2022-07-15T09:18:29;5.70;;;3.30;;
41343;SDS011;27089;50.022;7.604;2022-07-15T09:21:00;6.00;;;3.57;;
41343;SDS011;27089;50.022;7.604;2022-07-15T09:23:29;7.37;;;3.53;;
41343;SDS011;27089;50.022;7.604;2022-07-15T09:25:58;4.22;;;3.08;;
41343;SDS011;27089;50.022;7.604;2022-07-15T09:28:36;5.32;;;2.72;;
41343;SDS011;27089;50.022;7.604;2022-07-15T09:31:05;4.90;;;3.22;;
41343;SDS011;27089;50.022;7.604;2022-07-15T09:33:50;6.93;;;3.65;;
41343;SDS011;27089;50.022;7.604;2022-07-15T09:36:24;5.32;;;3.25;;
41343;SDS011;27089;50.022;7.604;2022-07-15T09:38:54;5.47;;;3.38;;
41343;SDS011;27089;50.022;7.604;2022-07-15T09:41:26;5.78;;;3.50;;
41343;SDS011;27089;50.022;7.604;2022-07-15T09:43:57;6.82;;;3.80;;
41343;SDS011;27089;50.022;7.604;2022-07-15T09:46:27;7.10;;;4.10;;
41343;SDS011;27089;50.022;7.604;2022-07-15T09:49:06;6.88;;;3.78;;
41343;SDS011;27089;50.022;7.604;2022-07-15T09:51:42;5.38;;;3.70;;
41343;SDS011;27089;50.022;7.604;2022-07-15T09:54:12;5.57;;;3.80;;
41343;SDS011;27089;50.022;7.604;2022-07-15T09:56:40;5.38;;;3.33;;
41343;SDS011;27089;50.022;7.604;2022-07-15T09:59:07;4.90;;;3.15;;
41343;SDS011;27089;50.022;7.604;2022-07-15T10:01:34;5.90;;;2.90;;
41343;SDS011;27089;50.022;7.604;2022-07-15T10:04:02;6.53;;;3.03;;
41343;SDS011;27089;50.022;7.604;2022-07-15T10:06:30;4.72;;;3.40;;
41343;SDS011;27089;50.022;7.604;2022-07-15T10:09:00;5.93;;;3.42;;
41343;SDS011;27089;50.022;7.604;2022-07-15T10:11:29;5.82;;;3.13;;
41343;SDS011;27089;50.022;7.604;2022-07-15T10:14:08;3.50;;;3.20;;
41343;SDS011;27089;50.022;7.604;2022-07-15T10:17:17;5.55;;;3.20;;
41343;SDS011;27089;50.022;7.604;2022-07-15T10:20:02;4.93;;;2.90;;
41343;SDS011;27089;50.022;7.604;2022-07-15T10:22:49;4.40;;;2.80;;
41343;SDS011;27089;50.022;7.604;2022-07-15T10:25:31;4.00;;;2.65;;
41343;SDS011;27089;50.022;7.604;2022-07-15T10:28:17;4.30;;;2.80;;
41343;SDS011;27089;50.022;7.604;2022-07-15T10:33:42;5.10;;;2.80;;
41343;SDS011;27089;50.022;7.604;2022-07-15T10:36:53;4.25;;;2.60;;
41343;SDS011;27089;50.022;7.604;2022-07-15T10:39:22;3.65;;;2.72;;
41343;SDS011;27089;50.022;7.604;2022-07-15T10:41:51;5.43;;;2.90;;
41343;SDS011;27089;50.022;7.604;2022-07-15T10:44:20;2.92;;;2.60;;
41343;SDS011;27089;50.022;7.604;2022-07-15T10:46:47;4.80;;;3.08;;
41343;SDS011;27089;50.022;7.604;2022-07-15T10:49:43;3.53;;;2.67;;
41343;SDS011;27089;50.022;7.604;2022-07-15T10:52:12;2.97;;;2.67;;
41343;SDS011;27089;50.022;7.604;2022-07-15T10:54:42;4.82;;;2.80;;
41343;SDS011;27089;50.022;7.604;2022-07-15T10:57:11;4.80;;;3.00;;
41343;SDS011;27089;50.022;7.604;2022-07-15T10:59:48;5.30;;;3.30;;
41343;SDS011;27089;50.022;7.604;2022-07-15T11:02:17;7.28;;;3.53;;
41343;SDS011;27089;50.022;7.604;2022-07-15T11:04:46;7.70;;;3.53;;
41343;SDS011;27089;50.022;7.604;2022-07-15T11:07:29;5.82;;;3.50;;
41343;SDS011;27089;50.022;7.604;2022-07-15T11:10:14;4.75;;;3.22;;
41343;SDS011;27089;50.022;7.604;2022-07-15T11:12:55;5.78;;;3.67;;
41343;SDS011;27089;50.022;7.604;2022-07-15T11:15:30;6.07;;;3.47;;
41343;SDS011;27089;50.022;7.604;2022-07-15T11:17:58;5.57;;;3.17;;
41343;SDS011;27089;50.022;7.604;2022-07-15T11:20:28;5.25;;;2.95;;
41343;SDS011;27089;50.022;7.604;2022-07-15T11:23:03;7.03;;;3.33;;
41343;SDS011;27089;50.022;7.604;2022-07-15T11:25:33;6.72;;;3.70;;
41343;SDS011;27089;50.022;7.604;2022-07-15T11:28:03;5.97;;;3.50;;
41343;SDS011;27089;50.022;7.604;2022-07-15T11:30:35;4.65;;;3.88;;
41343;SDS011;27089;50.022;7.604;2022-07-15T11:33:05;5.15;;;3.83;;
41343;SDS011;27089;50.022;7.604;2022-07-15T11:35:44;4.97;;;3.60;;
41343;SDS011;27089;50.022;7.604;2022-07-15T11:38:12;5.13;;;3.88;;
41343;SDS011;27089;50.022;7.604;2022-07-15T11:40:44;7.13;;;3.92;;
41343;SDS011;27089;50.022;7.604;2022-07-15T11:43:30;6.55;;;4.22;;
41343;SDS011;27089;50.022;7.604;2022-07-15T11:46:16;4.55;;;3.58;;
41343;SDS011;27089;50.022;7.604;2022-07-15T11:48:43;5.93;;;3.53;;
41343;SDS011;27089;50.022;7.604;2022-07-15T11:51:10;5.72;;;3.70;;
41343;SDS011;27089;50.022;7.604;2022-07-15T11:53:38;6.57;;;3.63;;
41343;SDS011;27089;50.022;7.604;2022-07-15T11:56:08;3.90;;;3.17;;
41343;SDS011;27089;50.022;7.604;2022-07-15T11:58:36;5.43;;;3.70;;
41343;SDS011;27089;50.022;7.604;2022-07-15T12:01:04;4.10;;;3.17;;
41343;SDS011;27089;50.022;7.604;2022-07-15T12:03:35;3.80;;;3.42;;
41343;SDS011;27089;50.022;7.604;2022-07-15T12:06:05;5.05;;;3.30;;
41343;SDS011;27089;50.022;7.604;2022-07-15T12:08:38;5.80;;;3.65;;
41343;SDS011;27089;50.022;7.604;2022-07-15T12:11:12;3.22;;;2.92;;
41343;SDS011;27089;50.022;7.604;2022-07-15T12:13:45;4.10;;;3.10;;
41343;SDS011;27089;50.022;7.604;2022-07-15T12:16:17;5.57;;;3.78;;
41343;SDS011;27089;50.022;7.604;2022-07-15T12:18:46;4.55;;;3.38;;
41343;SDS011;27089;50.022;7.604;2022-07-15T12:21:15;5.80;;;3.30;;
41343;SDS011;27089;50.022;7.604;2022-07-15T12:23:56;4.47;;;3.30;;
41343;SDS011;27089;50.022;7.604;2022-07-15T12:26:28;5.35;;;3.55;;
41343;SDS011;27089;50.022;7.604;2022-07-15T12:28:56;5.72;;;3.38;;
41343;SDS011;27089;50.022;7.604;2022-07-15T12:31:25;6.15;;;3.47;;
41343;SDS011;27089;50.022;7.604;2022-07-15T12:33:54;4.78;;;2.70;;
41343;SDS011;27089;50.022;7.604;2022-07-15T12:36:22;6.32;;;3.08;;
41343;SDS011;27089;50.022;7.604;2022-07-15T12:39:01;4.28;;;3.03;;
41343;SDS011;27089;50.022;7.604;2022-07-15T12:41:30;5.63;;;3.00;;
41343;SDS011;27089;50.022;7.604;2022-07-15T12:43:59;3.65;;;2.85;;
41343;SDS011;27089;50.022;7.604;2022-07-15T12:52:21;5.35;;;3.10;;
41343;SDS011;27089;50.022;7.604;2022-07-15T12:54:51;3.15;;;2.50;;
41343;SDS011;27089;50.022;7.604;2022-07-15T12:57:25;3.42;;;2.50;;
41343;SDS011;27089;50.022;7.604;2022-07-15T12:59:55;5.78;;;2.55;;
41343;SDS011;27089;50.022;7.604;2022-07-15T13:02:23;6.93;;;3.03;;
41343;SDS011;27089;50.022;7.604;2022-07-15T13:04:51;4.97;;;2.42;;
41343;SDS011;27089;50.022;7.604;2022-07-15T13:07:19;4.68;;;2.20;;
41343;SDS011;27089;50.022;7.604;2022-07-15T13:09:46;4.40;;;2.40;;
41343;SDS011;27089;50.022;7.604;2022-07-15T13:12:13;3.95;;;2.15;;
41343;SDS011;27089;50.022;7.604;2022-07-15T13:14:40;7.55;;;2.28;;
41343;SDS011;27089;50.022;7.604;2022-07-15T13:17:08;4.95;;;2.10;;
41343;SDS011;27089;50.022;7.604;2022-07-15T13:19:35;2.47;;;1.98;;
41343;SDS011;27089;50.022;7.604;2022-07-15T13:22:03;7.97;;;2.47;;
41343;SDS011;27089;50.022;7.604;2022-07-15T13:24:31;5.25;;;2.20;;
41343;SDS011;27089;50.022;7.604;2022-07-15T13:26:58;2.35;;;2.00;;
41343;SDS011;27089;50.022;7.604;2022-07-15T13:29:25;3.80;;;2.10;;
41343;SDS011;27089;50.022;7.604;2022-07-15T13:31:52;5.63;;;2.40;;
41343;SDS011;27089;50.022;7.604;2022-07-15T13:34:19;4.25;;;2.05;;
41343;SDS011;27089;50.022;7.604;2022-07-15T13:36:46;3.90;;;2.20;;
41343;SDS011;27089;50.022;7.604;2022-07-15T13:39:13;4.72;;;1.88;;
41343;SDS011;27089;50.022;7.604;2022-07-15T13:41:42;5.57;;;2.00;;
41343;SDS011;27089;50.022;7.604;2022-07-15T13:44:09;5.57;;;2.10;;
41343;SDS011;27089;50.022;7.604;2022-07-15T13:46:36;4.28;;;2.40;;
41343;SDS011;27089;50.022;7.604;2022-07-15T13:49:03;2.75;;;2.00;;
41343;SDS011;27089;50.022;7.604;2022-07-15T13:51:30;4.20;;;2.00;;
41343;SDS011;27089;50.022;7.604;2022-07-15T13:53:56;2.97;;;1.90;;
41343;SDS011;27089;50.022;7.604;2022-07-15T13:56:25;3.13;;;2.00;;
41343;SDS011;27089;50.022;7.604;2022-07-15T13:58:53;3.35;;;2.20;;
41343;SDS011;27089;50.022;7.604;2022-07-15T14:01:24;3.92;;;1.95;;
41343;SDS011;27089;50.022;7.604;2022-07-15T14:03:52;4.13;;;1.90;;
41343;SDS011;27089;50.022;7.604;2022-07-15T14:06:19;3.97;;;1.80;;
41343;SDS011;27089;50.022;7.604;2022-07-15T14:08:46;3.90;;;2.00;;
41343;SDS011;27089;50.022;7.604;2022-07-15T14:11:13;4.00;;;1.80;;
41343;SDS011;27089;50.022;7.604;2022-07-15T14:13:40;3.92;;;1.80;;
41343;SDS011;27089;50.022;7.604;2022-07-15T14:16:09;4.60;;;1.60;;
41343;SDS011;27089;50.022;7.604;2022-07-15T14:18:36;2.15;;;1.50;;
41343;SDS011;27089;50.022;7.604;2022-07-15T14:21:12;3.97;;;1.98;;
41343;SDS011;27089;50.022;7.604;2022-07-15T14:23:41;2.35;;;1.65;;
41343;SDS011;27089;50.022;7.604;2022-07-15T14:26:08;2.10;;;1.80;;
41343;SDS011;27089;50.022;7.604;2022-07-15T14:28:36;4.18;;;1.98;;
41343;SDS011;27089;50.022;7.604;2022-07-15T14:31:04;3.30;;;1.88;;
41343;SDS011;27089;50.022;7.604;2022-07-15T14:33:32;4.53;;;1.65;;
41343;SDS011;27089;50.022;7.604;2022-07-15T14:36:00;6.25;;;2.00;;
41343;SDS011;27089;50.022;7.604;2022-07-15T14:38:27;2.75;;;1.83;;
41343;SDS011;27089;50.022;7.604;2022-07-15T14:40:56;4.35;;;1.70;;
41343;SDS011;27089;50.022;7.604;2022-07-15T14:43:24;4.28;;;1.83;;
41343;SDS011;27089;50.022;7.604;2022-07-15T14:45:51;4.00;;;1.65;;
41343;SDS011;27089;50.022;7.604;2022-07-15T14:48:17;4.80;;;1.55;;
41343;SDS011;27089;50.022;7.604;2022-07-15T14:50:46;3.47;;;1.77;;
41343;SDS011;27089;50.022;7.604;2022-07-15T14:53:13;2.30;;;1.60;;
41343;SDS011;27089;50.022;7.604;2022-07-15T14:55:40;2.78;;;1.80;;
41343;SDS011;27089;50.022;7.604;2022-07-15T14:58:07;2.53;;;1.70;;
41343;SDS011;27089;50.022;7.604;2022-07-15T15:00:37;4.30;;;1.80;;
41343;SDS011;27089;50.022;7.604;2022-07-15T15:03:04;4.32;;;1.58;;
41343;SDS011;27089;50.022;7.604;2022-07-15T15:05:31;2.97;;;1.50;;
41343;SDS011;27089;50.022;7.604;2022-07-15T15:08:00;2.92;;;1.52;;